Impacts METAR Board
IDs:

KEWR - Newark Intl, NJ, US

Updated at: 0100 UTC 25 Mar 2019
Potential Impact None Slight Moderate High
Time 24/13Z 24/14Z 24/15Z 24/16Z 24/17Z 24/18Z 24/19Z 24/20Z 24/21Z 24/22Z 24/23Z 25/00Z 25/01Z
Temp41 45 49 53 57 59 59 60 60 60 59 58 57
Dewpt12 10 11 10 9 12 15 14 16 17 17 17 19
Altim30.23 30.21 30.20 30.17 30.14 30.11 30.08 30.04 30.01 30.02 30.02 30.03 30.04
VIS10 10 10 10 10 10 10 10 10 10 10 10 10
CIG-- 250 -- -- 250 250 160 180 150 140 250 250 240
CoverSCTBKNSCTSCTBKNBKNBKNBKNBKNBKNOVCBKNBKN
FltCatVFRVFRVFRVFRVFRVFRVFRVFRVFRVFRVFRVFRVFR
WX--------------------------
WDir240270250250270270220230250260240240240
WSpd9 10 12 8 11 15 11 15 16 14 12 11 8
WGst-- -- -- -- -- 22 21 21 -- 21 -- -- --
Raw hourly METARs
KEWR 241251Z 24009KT 10SM SCT250 05/M11 A3023 RMK AO2 SLP235 T00501111
KEWR 241351Z 27010KT 10SM FEW200 BKN250 07/M12 A3021 RMK AO2 SLP230 T00721122
KEWR 241451Z 25012KT 10SM FEW200 SCT250 09/M12 A3020 RMK AO2 SLP227 T00941117 58008
KEWR 241551Z 25008KT 10SM SCT230 12/M12 A3017 RMK AO2 SLP215 T01171122
KEWR 241651Z 27011KT 10SM SCT200 BKN250 14/M13 A3014 RMK AO2 SLP205 T01391128
KEWR 241751Z 27015G22KT 10SM FEW050 SCT200 BKN250 15/M11 A3011 RMK AO2 SLP196 T01501111 10150 20028 56030
KEWR 241851Z 22011G21KT 10SM FEW002 FEW050 BKN160 BKN250 15/M09 A3008 RMK AO2 SLP184 FU FEW002 T01501094
KEWR 241951Z 23015G21KT 10SM FEW002 FEW050 BKN180 BKN250 16/M10 A3004 RMK AO2 SLP171 FU FEW002 FU PLUME W DRFTG NE T01561100
KEWR 242051Z 25016KT 10SM FEW090 BKN150 BKN200 BKN250 16/M09 A3001 RMK AO2 SLP162 T01561089 56034
KEWR 242151Z 26014G21KT 10SM FEW090 BKN140 BKN250 16/M08 A3002 RMK AO2 SLP164 T01561083
KEWR 242251Z 24012KT 10SM SCT140 OVC250 15/M08 A3002 RMK AO2 SLP166 T01501083
KEWR 242351Z 24011KT 10SM SCT170 BKN250 14/M08 A3003 RMK AO2 SLP167 T01441083 10167 20144 53005
KEWR 250051Z 24008KT 10SM SCT150 BKN240 14/M07 A3004 RMK AO2 SLP172 T01391072



Page loaded:  01:30 UTC  |   06:30 PM Pacific  |   07:30 PM Mountain  |   08:30 PM Central  |   09:30 PM Eastern

 

ADVISORIES

FORECASTS

FORECASTS

OBSERVATIONS

USER TOOLS

ABOUT US